Yreka, CA (96097)

5:41 PM PDT on September 22, 2014 (GMT -0700)
RAWS BRAZIE RANCH CA US | Change Station
CLOSE
Current Station
Personal Weather Station
Location: Yreka, CA
Elevation: 3089 ft
Nearby Weather Stations
Active Advisory: Fire Weather Warning

Elev 3089 ft 41.68 °N, 122.60 °W | Updated 47 minutes ago

Mostly Cloudy
Mostly Cloudy
81 °F
Feels Like 80 °F
N
16
Wind Variable Wind from ESE
Gusts 28.0 mph

Today
High -- | Low -- °F
--% Chance of Precip.
Yesterday
High -- | Low -- °F
Precip. -- in
6:58 AM 7:07 PM
Waning Crescent, 1% visible
Pressure 29.89 in
Visibility 10.0 miles
Clouds Clear
Heat Index 80 °F
Dew Point 44 °F
Humidity 27%
Rainfall 0.00 in
Snow Depth 2 in , 0 in , 0 in
UV 2 out of 12
Pollen 4.00 out of 12
Air Quality Not available.
Flu Activity Not available.
METAR KSIY 222353Z AUTO 16022G27KT 10SM CLR 29/06 A2993 RMK AO2 PK WND 16027/2352 SLP122 T02940056 10300 20228 58016

More Conditions Fewer Conditions

Pressure 29.89 in
Visibility 10.0 miles
Clouds Clear
Heat Index 80 °F
Dew Point 44 °F
Humidity 27%
Rainfall 0.00 in
Snow Depth 2 in , 0 in , 0 in
UV 2 out of 12
Pollen 4.00 out of 12
Air Quality Not available.
Flu Activity Not available.
METAR KSIY 222353Z AUTO 16022G27KT 10SM CLR 29/06 A2993 RMK AO2 PK WND 16027/2352 SLP122 T02940056 10300 20228 58016

More Conditions Fewer Conditions

10-Day Weather Forecast

Almanac

Astronomy

Sep. 22, 2014 Rise Set
Actual Time 6:58 AM PDT 7:07 PM PDT
Civil Twilight 6:30 AM PDT 7:35 PM PDT
Nautical Twilight 5:57 AM PDT 8:07 PM PDT
Astronomical Twilight 5:24 AM PDT 8:40 PM PDT
Moon 5:30 AM PDT (9/22) 6:18 PM PDT (9/22)
Length of Visible Light 13h 04m
Length of Day
12h 09m
Tomorrow will be 2m 47s shorter.
Waning Crescent, 1% of the Moon is Illuminated
Today
Waning Crescent
Sep 24
New
Oct 1
First Quarter
Oct 8
Full
Oct 15
Last Quarter

Today's Extremes

State Highs State Lows

Community

WunderPhotos

Upload Photos

1,755,575 photos uploaded!

Nearby

Snow Depth

Station Depth Elevation
CSS Lab 2 in 6900 ft
Summit Meadow 0 in 9122 ft
Adin Mountain 0 in 6200 ft
Tahoe City Cross 0 in 6750 ft

Earthquake Activity

City Distance Mag. Time & Date
Eureka, California 102 miles 2.9 1:33 PM PDT
2014-09-20
Minimum magnitude displayed is 2.5.

Coastal Water Temperatures

Place Temperature
No Stations Reporting

Nearby Weather Stations